sensor_id;sensor_type;location;lat;lon;timestamp;pressure;altitude;pressure_sealevel;temperature;humidity
60055;BME280;45930;53.514;55.904;2023-04-06T00:00:01;49098.28;;;-149.77;74.78
60055;BME280;45930;53.514;55.904;2023-04-06T00:01:02;49102.25;;;-149.77;74.62
60055;BME280;45930;53.514;55.904;2023-04-06T00:02:03;49086.41;;;-149.77;73.67
60055;BME280;45930;53.514;55.904;2023-04-06T00:03:04;49066.59;;;-149.77;72.76
60055;BME280;45930;53.514;55.904;2023-04-06T00:04:05;49096.31;;;-149.77;71.87
60055;BME280;45930;53.514;55.904;2023-04-06T00:05:07;49118.09;;;-149.77;70.96
60055;BME280;45930;53.514;55.904;2023-04-06T00:06:08;49104.25;;;-149.77;69.98
60055;BME280;45930;53.514;55.904;2023-04-06T00:07:08;49096.31;;;-149.77;68.73
60055;BME280;45930;53.514;55.904;2023-04-06T00:08:09;49108.19;;;-149.77;68.43
60055;BME280;45930;53.514;55.904;2023-04-06T00:09:11;49102.25;;;-149.77;67.34
60055;BME280;45930;53.514;55.904;2023-04-06T00:10:12;49145.84;;;-149.77;67.33
60055;BME280;45930;53.514;55.904;2023-04-06T00:11:13;49104.25;;;-149.77;67.38
60055;BME280;45930;53.514;55.904;2023-04-06T00:12:14;49122.06;;;-149.77;66.93
60055;BME280;45930;53.514;55.904;2023-04-06T00:13:14;49116.13;;;-149.77;66.52
60055;BME280;45930;53.514;55.904;2023-04-06T00:14:15;49133.94;;;-149.77;66.13
60055;BME280;45930;53.514;55.904;2023-04-06T00:15:17;49126.03;;;-149.77;65.92
60055;BME280;45930;53.514;55.904;2023-04-06T00:16:20;49100.28;;;-149.77;65.99
60055;BME280;45930;53.514;55.904;2023-04-06T00:17:21;49128.00;;;-149.77;65.80
60055;BME280;45930;53.514;55.904;2023-04-06T00:18:22;49126.03;;;-149.77;65.89
60055;BME280;45930;53.514;55.904;2023-04-06T00:19:23;49131.97;;;-149.77;66.08
60055;BME280;45930;53.514;55.904;2023-04-06T00:20:24;49104.25;;;-149.77;66.01
60055;BME280;45930;53.514;55.904;2023-04-06T00:21:25;49102.25;;;-149.77;65.20
60055;BME280;45930;53.514;55.904;2023-04-06T00:22:26;49116.13;;;-149.77;65.36
60055;BME280;45930;53.514;55.904;2023-04-06T00:23:27;49155.75;;;-149.77;65.44
60055;BME280;45930;53.514;55.904;2023-04-06T00:24:27;49133.94;;;-149.77;65.20
60055;BME280;45930;53.514;55.904;2023-04-06T00:25:28;49135.94;;;-149.77;64.48
60055;BME280;45930;53.514;55.904;2023-04-06T00:26:29;49135.94;;;-149.77;65.21
60055;BME280;45930;53.514;55.904;2023-04-06T00:27:30;49130.00;;;-149.77;65.94
60055;BME280;45930;53.514;55.904;2023-04-06T00:28:31;49128.00;;;-149.77;66.03
60055;BME280;45930;53.514;55.904;2023-04-06T00:29:32;49130.00;;;-149.77;66.09
60055;BME280;45930;53.514;55.904;2023-04-06T00:30:32;49118.09;;;-149.77;66.93
60055;BME280;45930;53.514;55.904;2023-04-06T00:31:33;49145.84;;;-149.77;67.56
60055;BME280;45930;53.514;55.904;2023-04-06T00:32:35;49108.19;;;-149.77;68.10
60055;BME280;45930;53.514;55.904;2023-04-06T00:33:36;49124.03;;;-149.77;69.78
60055;BME280;45930;53.514;55.904;2023-04-06T00:34:37;49139.91;;;-149.77;71.22
60055;BME280;45930;53.514;55.904;2023-04-06T00:35:38;49153.75;;;-149.77;72.42
60055;BME280;45930;53.514;55.904;2023-04-06T00:36:39;49106.22;;;-149.77;72.76
60055;BME280;45930;53.514;55.904;2023-04-06T00:37:40;49131.97;;;-149.77;72.72
60055;BME280;45930;53.514;55.904;2023-04-06T00:38:41;49118.09;;;-149.77;72.61
60055;BME280;45930;53.514;55.904;2023-04-06T00:39:42;49135.94;;;-149.77;72.86
60055;BME280;45930;53.514;55.904;2023-04-06T00:40:43;49120.09;;;-149.77;73.00
60055;BME280;45930;53.514;55.904;2023-04-06T00:41:50;49112.16;;;-149.77;73.05
60055;BME280;45930;53.514;55.904;2023-04-06T00:42:51;49124.03;;;-149.77;72.81
60055;BME280;45930;53.514;55.904;2023-04-06T00:43:53;49112.16;;;-149.77;73.20
60055;BME280;45930;53.514;55.904;2023-04-06T00:44:57;49120.09;;;-149.77;73.08
60055;BME280;45930;53.514;55.904;2023-04-06T00:45:58;49116.13;;;-149.77;72.97
60055;BME280;45930;53.514;55.904;2023-04-06T00:46:59;49108.19;;;-149.77;71.99
60055;BME280;45930;53.514;55.904;2023-04-06T00:48:00;49126.03;;;-149.77;71.96
60055;BME280;45930;53.514;55.904;2023-04-06T00:49:02;49100.28;;;-149.77;71.61
60055;BME280;45930;53.514;55.904;2023-04-06T00:50:03;49088.41;;;-149.77;71.19
60055;BME280;45930;53.514;55.904;2023-04-06T00:51:04;49139.91;;;-149.77;70.78
60055;BME280;45930;53.514;55.904;2023-04-06T00:52:05;49143.84;;;-149.77;71.88
60055;BME280;45930;53.514;55.904;2023-04-06T00:53:06;49110.19;;;-149.77;72.64
60055;BME280;45930;53.514;55.904;2023-04-06T00:54:07;49116.13;;;-149.77;72.99
60055;BME280;45930;53.514;55.904;2023-04-06T00:55:08;49128.00;;;-149.77;72.65
60055;BME280;45930;53.514;55.904;2023-04-06T00:56:09;49135.94;;;-149.77;72.44
60055;BME280;45930;53.514;55.904;2023-04-06T00:57:13;49124.03;;;-149.77;72.39
60055;BME280;45930;53.514;55.904;2023-04-06T00:58:14;49133.94;;;-149.77;72.60
60055;BME280;45930;53.514;55.904;2023-04-06T00:59:15;49112.16;;;-149.77;73.66
60055;BME280;45930;53.514;55.904;2023-04-06T01:00:16;49114.16;;;-149.77;73.66
60055;BME280;45930;53.514;55.904;2023-04-06T01:01:17;49118.09;;;-149.77;73.84
60055;BME280;45930;53.514;55.904;2023-04-06T01:02:18;49124.03;;;-149.77;73.85
60055;BME280;45930;53.514;55.904;2023-04-06T01:03:19;49130.00;;;-149.77;73.67
60055;BME280;45930;53.514;55.904;2023-04-06T01:04:20;49120.09;;;-149.77;73.76
60055;BME280;45930;53.514;55.904;2023-04-06T01:05:23;49104.25;;;-149.77;73.77
60055;BME280;45930;53.514;55.904;2023-04-06T01:06:24;49108.19;;;-149.77;73.44
60055;BME280;45930;53.514;55.904;2023-04-06T01:07:24;49120.09;;;-149.77;73.66
60055;BME280;45930;53.514;55.904;2023-04-06T01:08:25;49092.34;;;-149.77;73.37
60055;BME280;45930;53.514;55.904;2023-04-06T01:09:30;49135.94;;;-149.77;74.03
60055;BME280;45930;53.514;55.904;2023-04-06T01:10:31;49110.19;;;-149.77;73.70
60055;BME280;45930;53.514;55.904;2023-04-06T01:11:32;49102.25;;;-149.77;73.32
60055;BME280;45930;53.514;55.904;2023-04-06T01:12:32;49120.09;;;-149.77;73.61
60055;BME280;45930;53.514;55.904;2023-04-06T01:13:33;49130.00;;;-149.77;73.68
60055;BME280;45930;53.514;55.904;2023-04-06T01:14:35;49139.91;;;-149.77;73.68
60055;BME280;45930;53.514;55.904;2023-04-06T01:15:36;49133.94;;;-149.77;73.53
60055;BME280;45930;53.514;55.904;2023-04-06T01:16:40;49096.31;;;-149.77;73.55
60055;BME280;45930;53.514;55.904;2023-04-06T01:17:41;49141.88;;;-149.77;73.54
60055;BME280;45930;53.514;55.904;2023-04-06T01:18:42;49110.19;;;-149.77;74.45
60055;BME280;45930;53.514;55.904;2023-04-06T01:19:43;49108.19;;;-149.77;74.82
60055;BME280;45930;53.514;55.904;2023-04-06T01:20:45;49104.25;;;-149.77;75.19
60055;BME280;45930;53.514;55.904;2023-04-06T01:21:46;49092.34;;;-149.77;75.65
60055;BME280;45930;53.514;55.904;2023-04-06T01:22:49;49072.53;;;-149.77;75.94
60055;BME280;45930;53.514;55.904;2023-04-06T01:23:50;49096.31;;;-149.77;76.17
60055;BME280;45930;53.514;55.904;2023-04-06T01:24:51;49090.38;;;-149.77;75.95
60055;BME280;45930;53.514;55.904;2023-04-06T01:25:52;49084.44;;;-149.77;75.94
60055;BME280;45930;53.514;55.904;2023-04-06T01:26:53;49088.41;;;-149.77;75.46
60055;BME280;45930;53.514;55.904;2023-04-06T01:27:54;49104.25;;;-149.77;75.39
60055;BME280;45930;53.514;55.904;2023-04-06T01:28:55;49088.41;;;-149.77;74.81
60055;BME280;45930;53.514;55.904;2023-04-06T01:29:56;49124.03;;;-149.77;75.09
60055;BME280;45930;53.514;55.904;2023-04-06T01:30:57;49122.06;;;-149.77;75.06
60055;BME280;45930;53.514;55.904;2023-04-06T01:31:58;49068.59;;;-149.77;74.81
60055;BME280;45930;53.514;55.904;2023-04-06T01:32:59;49074.53;;;-149.77;75.09
60055;BME280;45930;53.514;55.904;2023-04-06T01:34:00;49100.28;;;-149.77;75.33
60055;BME280;45930;53.514;55.904;2023-04-06T01:35:01;49072.53;;;-149.77;75.29
60055;BME280;45930;53.514;55.904;2023-04-06T01:36:03;49100.28;;;-149.77;75.14
60055;BME280;45930;53.514;55.904;2023-04-06T01:37:04;49060.66;;;-149.77;74.66
60055;BME280;45930;53.514;55.904;2023-04-06T01:38:05;49078.50;;;-149.77;74.72
60055;BME280;45930;53.514;55.904;2023-04-06T01:39:05;49108.19;;;-149.77;73.46
60055;BME280;45930;53.514;55.904;2023-04-06T01:40:07;49072.53;;;-149.77;72.64
60055;BME280;45930;53.514;55.904;2023-04-06T01:41:08;49098.28;;;-149.77;71.39
60055;BME280;45930;53.514;55.904;2023-04-06T01:42:09;49116.13;;;-149.77;71.84
60055;BME280;45930;53.514;55.904;2023-04-06T01:43:10;49116.13;;;-149.77;71.90
60055;BME280;45930;53.514;55.904;2023-04-06T01:44:11;49122.06;;;-149.77;72.20
60055;BME280;45930;53.514;55.904;2023-04-06T01:45:12;49122.06;;;-149.77;71.93
60055;BME280;45930;53.514;55.904;2023-04-06T01:46:13;49096.31;;;-149.77;72.42
60055;BME280;45930;53.514;55.904;2023-04-06T01:47:13;49116.13;;;-149.77;72.76
60055;BME280;45930;53.514;55.904;2023-04-06T01:48:14;49086.41;;;-149.77;72.29
60055;BME280;45930;53.514;55.904;2023-04-06T01:49:15;49076.50;;;-149.77;72.42
60055;BME280;45930;53.514;55.904;2023-04-06T01:50:16;49100.28;;;-149.77;72.56
60055;BME280;45930;53.514;55.904;2023-04-06T01:51:17;49102.25;;;-149.77;71.57
60055;BME280;45930;53.514;55.904;2023-04-06T01:52:18;49126.03;;;-149.77;71.11
60055;BME280;45930;53.514;55.904;2023-04-06T01:53:19;49106.22;;;-149.77;70.88
60055;BME280;45930;53.514;55.904;2023-04-06T01:54:20;49098.28;;;-149.77;70.66
60055;BME280;45930;53.514;55.904;2023-04-06T01:55:21;49080.47;;;-149.77;70.75
60055;BME280;45930;53.514;55.904;2023-04-06T01:56:21;49102.25;;;-149.77;70.26
60055;BME280;45930;53.514;55.904;2023-04-06T01:57:22;49102.25;;;-149.77;70.20
60055;BME280;45930;53.514;55.904;2023-04-06T01:58:23;49141.88;;;-149.77;70.96
60055;BME280;45930;53.514;55.904;2023-04-06T01:59:24;49110.19;;;-149.77;70.88
60055;BME280;45930;53.514;55.904;2023-04-06T02:00:25;49070.56;;;-149.77;70.44
60055;BME280;45930;53.514;55.904;2023-04-06T02:01:26;49090.38;;;-149.77;70.11
60055;BME280;45930;53.514;55.904;2023-04-06T02:02:27;49135.94;;;-149.77;69.54
60055;BME280;45930;53.514;55.904;2023-04-06T02:03:27;49086.41;;;-149.77;69.88
60055;BME280;45930;53.514;55.904;2023-04-06T02:04:28;49112.16;;;-149.77;69.90
60055;BME280;45930;53.514;55.904;2023-04-06T02:05:32;49116.13;;;-149.77;69.20
60055;BME280;45930;53.514;55.904;2023-04-06T02:06:42;49104.25;;;-149.77;69.94
60055;BME280;45930;53.514;55.904;2023-04-06T02:07:43;49086.41;;;-149.77;70.10
60055;BME280;45930;53.514;55.904;2023-04-06T02:08:43;49084.44;;;-149.77;70.05
60055;BME280;45930;53.514;55.904;2023-04-06T02:09:44;49090.38;;;-149.77;70.15
60055;BME280;45930;53.514;55.904;2023-04-06T02:10:45;49131.97;;;-149.77;70.03
60055;BME280;45930;53.514;55.904;2023-04-06T02:11:46;49096.31;;;-149.77;69.96
60055;BME280;45930;53.514;55.904;2023-04-06T02:12:47;49100.28;;;-149.77;69.90
60055;BME280;45930;53.514;55.904;2023-04-06T02:13:48;49098.28;;;-149.77;69.43
60055;BME280;45930;53.514;55.904;2023-04-06T02:14:49;49106.22;;;-149.77;70.13
60055;BME280;45930;53.514;55.904;2023-04-06T02:15:50;49100.28;;;-149.77;70.08
60055;BME280;45930;53.514;55.904;2023-04-06T02:16:51;49090.38;;;-149.77;70.07
60055;BME280;45930;53.514;55.904;2023-04-06T02:17:53;49096.31;;;-149.77;70.26
60055;BME280;45930;53.514;55.904;2023-04-06T02:18:54;49112.16;;;-149.77;70.03
60055;BME280;45930;53.514;55.904;2023-04-06T02:19:54;49084.44;;;-149.77;69.93
60055;BME280;45930;53.514;55.904;2023-04-06T02:20:55;49098.28;;;-149.77;69.84
60055;BME280;45930;53.514;55.904;2023-04-06T02:21:56;49096.31;;;-149.77;69.22
60055;BME280;45930;53.514;55.904;2023-04-06T02:22:58;49096.31;;;-149.77;68.15
60055;BME280;45930;53.514;55.904;2023-04-06T02:24:00;49092.34;;;-149.77;68.54
60055;BME280;45930;53.514;55.904;2023-04-06T02:25:01;49092.34;;;-149.77;68.73
60055;BME280;45930;53.514;55.904;2023-04-06T02:26:03;49114.16;;;-149.77;69.15
60055;BME280;45930;53.514;55.904;2023-04-06T02:27:04;49092.34;;;-149.77;69.82
60055;BME280;45930;53.514;55.904;2023-04-06T02:28:06;49094.34;;;-149.77;70.17
60055;BME280;45930;53.514;55.904;2023-04-06T02:29:07;49108.19;;;-149.77;70.20
60055;BME280;45930;53.514;55.904;2023-04-06T02:30:09;49116.13;;;-149.77;70.52
60055;BME280;45930;53.514;55.904;2023-04-06T02:31:10;49128.00;;;-149.77;70.11
60055;BME280;45930;53.514;55.904;2023-04-06T02:32:11;49090.38;;;-149.77;70.39
60055;BME280;45930;53.514;55.904;2023-04-06T02:33:12;49096.31;;;-149.77;70.37
60055;BME280;45930;53.514;55.904;2023-04-06T02:34:12;49116.13;;;-149.77;70.44
60055;BME280;45930;53.514;55.904;2023-04-06T02:35:17;49098.28;;;-149.77;70.21
60055;BME280;45930;53.514;55.904;2023-04-06T02:36:18;49110.19;;;-149.77;70.44
60055;BME280;45930;53.514;55.904;2023-04-06T02:37:20;49102.25;;;-149.77;70.52
60055;BME280;45930;53.514;55.904;2023-04-06T02:38:21;49090.38;;;-149.77;70.26
60055;BME280;45930;53.514;55.904;2023-04-06T02:39:21;49090.38;;;-149.77;70.76
60055;BME280;45930;53.514;55.904;2023-04-06T02:40:23;49108.19;;;-149.77;70.51
60055;BME280;45930;53.514;55.904;2023-04-06T02:41:24;49088.41;;;-149.77;69.70
60055;BME280;45930;53.514;55.904;2023-04-06T02:42:24;49088.41;;;-149.77;69.30
60055;BME280;45930;53.514;55.904;2023-04-06T02:43:25;49076.50;;;-149.77;68.52
60055;BME280;45930;53.514;55.904;2023-04-06T02:44:26;49116.13;;;-149.77;68.68
60055;BME280;45930;53.514;55.904;2023-04-06T02:45:27;49084.44;;;-149.77;69.01
60055;BME280;45930;53.514;55.904;2023-04-06T02:46:28;49084.44;;;-149.77;69.46
60055;BME280;45930;53.514;55.904;2023-04-06T02:47:29;49122.06;;;-149.77;69.42
60055;BME280;45930;53.514;55.904;2023-04-06T02:48:30;49088.41;;;-149.77;69.67
60055;BME280;45930;53.514;55.904;2023-04-06T02:49:31;49100.28;;;-149.77;70.00
60055;BME280;45930;53.514;55.904;2023-04-06T02:50:32;49094.34;;;-149.77;69.75
60055;BME280;45930;53.514;55.904;2023-04-06T02:51:32;49098.28;;;-149.77;70.05
60055;BME280;45930;53.514;55.904;2023-04-06T02:52:33;49078.50;;;-149.77;70.02
60055;BME280;45930;53.514;55.904;2023-04-06T02:53:34;49133.94;;;-149.77;69.53
60055;BME280;45930;53.514;55.904;2023-04-06T02:54:35;49104.25;;;-149.77;70.30
60055;BME280;45930;53.514;55.904;2023-04-06T02:55:36;49108.19;;;-149.77;70.52
60055;BME280;45930;53.514;55.904;2023-04-06T02:56:37;49094.34;;;-149.77;70.39
60055;BME280;45930;53.514;55.904;2023-04-06T02:57:38;49110.19;;;-149.77;70.88
60055;BME280;45930;53.514;55.904;2023-04-06T02:58:39;49074.53;;;-149.77;71.20
60055;BME280;45930;53.514;55.904;2023-04-06T02:59:40;49082.44;;;-149.77;70.94
60055;BME280;45930;53.514;55.904;2023-04-06T03:00:41;49100.28;;;-149.77;71.42
60055;BME280;45930;53.514;55.904;2023-04-06T03:01:42;49088.41;;;-149.77;71.71
60055;BME280;45930;53.514;55.904;2023-04-06T03:02:43;49072.53;;;-149.77;71.17
60055;BME280;45930;53.514;55.904;2023-04-06T03:03:44;49102.25;;;-149.77;71.42
60055;BME280;45930;53.514;55.904;2023-04-06T03:04:45;49078.50;;;-149.77;71.11
60055;BME280;45930;53.514;55.904;2023-04-06T03:05:46;49084.44;;;-149.77;70.87
60055;BME280;45930;53.514;55.904;2023-04-06T03:06:47;49094.34;;;-149.77;70.98
60055;BME280;45930;53.514;55.904;2023-04-06T03:07:48;49072.53;;;-149.77;70.04
60055;BME280;45930;53.514;55.904;2023-04-06T03:08:49;49084.44;;;-149.77;69.70
60055;BME280;45930;53.514;55.904;2023-04-06T03:09:50;49102.25;;;-149.77;69.35
60055;BME280;45930;53.514;55.904;2023-04-06T03:10:51;49088.41;;;-149.77;69.12
60055;BME280;45930;53.514;55.904;2023-04-06T03:11:52;49102.25;;;-149.77;68.86
60055;BME280;45930;53.514;55.904;2023-04-06T03:12:52;49074.53;;;-149.77;68.67
60055;BME280;45930;53.514;55.904;2023-04-06T03:13:53;49092.34;;;-149.77;69.08
60055;BME280;45930;53.514;55.904;2023-04-06T03:14:54;49064.63;;;-149.77;68.78
60055;BME280;45930;53.514;55.904;2023-04-06T03:15:55;49062.66;;;-149.77;68.29
60055;BME280;45930;53.514;55.904;2023-04-06T03:16:56;49072.53;;;-149.77;68.22
60055;BME280;45930;53.514;55.904;2023-04-06T03:17:57;49090.38;;;-149.77;68.49
60055;BME280;45930;53.514;55.904;2023-04-06T03:18:58;49086.41;;;-149.77;67.91
60055;BME280;45930;53.514;55.904;2023-04-06T03:19:59;49058.69;;;-149.77;68.39
60055;BME280;45930;53.514;55.904;2023-04-06T03:21:00;49092.34;;;-149.77;67.88
60055;BME280;45930;53.514;55.904;2023-04-06T03:22:01;49050.75;;;-149.77;67.83
60055;BME280;45930;53.514;55.904;2023-04-06T03:23:02;49036.91;;;-149.77;67.04
60055;BME280;45930;53.514;55.904;2023-04-06T03:24:03;49090.38;;;-149.77;66.40
60055;BME280;45930;53.514;55.904;2023-04-06T03:25:05;49068.59;;;-149.77;66.27
60055;BME280;45930;53.514;55.904;2023-04-06T03:26:05;49064.63;;;-149.77;65.79
60055;BME280;45930;53.514;55.904;2023-04-06T03:27:06;49078.50;;;-149.77;65.28
60055;BME280;45930;53.514;55.904;2023-04-06T03:28:07;49070.56;;;-149.77;64.58
60055;BME280;45930;53.514;55.904;2023-04-06T03:29:08;49064.63;;;-149.77;63.56
60055;BME280;45930;53.514;55.904;2023-04-06T03:30:09;49066.59;;;-149.77;62.62
60055;BME280;45930;53.514;55.904;2023-04-06T03:31:10;49064.63;;;-149.77;60.60
60055;BME280;45930;53.514;55.904;2023-04-06T03:32:11;49064.63;;;-149.77;60.68
60055;BME280;45930;53.514;55.904;2023-04-06T03:33:12;49084.44;;;-149.77;59.73
60055;BME280;45930;53.514;55.904;2023-04-06T03:34:13;49074.53;;;-149.77;59.86
60055;BME280;45930;53.514;55.904;2023-04-06T03:35:14;49046.78;;;-149.77;59.59
60055;BME280;45930;53.514;55.904;2023-04-06T03:36:14;49064.63;;;-149.77;59.35
60055;BME280;45930;53.514;55.904;2023-04-06T03:37:15;49052.75;;;-149.77;59.46
60055;BME280;45930;53.514;55.904;2023-04-06T03:38:16;49042.84;;;-149.77;59.48
60055;BME280;45930;53.514;55.904;2023-04-06T03:39:17;49038.88;;;-149.77;59.12
60055;BME280;45930;53.514;55.904;2023-04-06T03:40:18;49072.53;;;-149.77;58.92
60055;BME280;45930;53.514;55.904;2023-04-06T03:41:19;49080.47;;;-149.77;58.73
60055;BME280;45930;53.514;55.904;2023-04-06T03:42:20;49068.59;;;-149.77;58.52
60055;BME280;45930;53.514;55.904;2023-04-06T03:43:21;49084.44;;;-149.77;57.68
60055;BME280;45930;53.514;55.904;2023-04-06T03:44:22;49062.66;;;-149.77;57.74
60055;BME280;45930;53.514;55.904;2023-04-06T03:45:22;49076.50;;;-149.77;57.55
60055;BME280;45930;53.514;55.904;2023-04-06T03:46:23;49064.63;;;-149.77;57.29
60055;BME280;45930;53.514;55.904;2023-04-06T03:47:24;49078.50;;;-149.77;56.92
60055;BME280;45930;53.514;55.904;2023-04-06T03:48:25;49068.59;;;-149.77;56.87
60055;BME280;45930;53.514;55.904;2023-04-06T03:49:26;49076.50;;;-149.77;55.99
60055;BME280;45930;53.514;55.904;2023-04-06T03:50:28;49060.66;;;-149.77;55.25
60055;BME280;45930;53.514;55.904;2023-04-06T03:51:29;49084.44;;;-149.77;55.13
60055;BME280;45930;53.514;55.904;2023-04-06T03:52:29;49080.47;;;-149.77;55.03
60055;BME280;45930;53.514;55.904;2023-04-06T03:53:31;49044.81;;;-149.77;54.89
60055;BME280;45930;53.514;55.904;2023-04-06T03:54:31;49046.78;;;-149.77;55.28
60055;BME280;45930;53.514;55.904;2023-04-06T03:55:32;49086.41;;;-149.77;55.55
60055;BME280;45930;53.514;55.904;2023-04-06T03:56:33;49032.94;;;-149.77;55.33
60055;BME280;45930;53.514;55.904;2023-04-06T03:57:34;49074.53;;;-149.77;54.56
60055;BME280;45930;53.514;55.904;2023-04-06T03:58:35;49052.75;;;-149.77;54.16
60055;BME280;45930;53.514;55.904;2023-04-06T03:59:35;49058.69;;;-149.77;53.59
60055;BME280;45930;53.514;55.904;2023-04-06T04:00:36;49066.59;;;-149.77;53.10
60055;BME280;45930;53.514;55.904;2023-04-06T04:01:38;49046.78;;;-149.77;52.24
60055;BME280;45930;53.514;55.904;2023-04-06T04:02:40;49025.00;;;-149.77;52.67
60055;BME280;45930;53.514;55.904;2023-04-06T04:03:41;49052.75;;;-149.77;52.49
60055;BME280;45930;53.514;55.904;2023-04-06T04:04:41;49064.63;;;-149.77;51.85
60055;BME280;45930;53.514;55.904;2023-04-06T04:05:42;49034.91;;;-149.77;51.92
60055;BME280;45930;53.514;55.904;2023-04-06T04:06:43;49042.84;;;-149.77;51.66
60055;BME280;45930;53.514;55.904;2023-04-06T04:07:44;49044.81;;;-149.77;51.50
60055;BME280;45930;53.514;55.904;2023-04-06T04:08:45;49032.94;;;-149.77;51.81
60055;BME280;45930;53.514;55.904;2023-04-06T04:09:46;49062.66;;;-149.77;51.41
60055;BME280;45930;53.514;55.904;2023-04-06T04:10:47;49036.91;;;-149.77;51.31
60055;BME280;45930;53.514;55.904;2023-04-06T04:11:48;49044.81;;;-149.77;51.05
60055;BME280;45930;53.514;55.904;2023-04-06T04:12:49;49052.75;;;-149.77;50.88
60055;BME280;45930;53.514;55.904;2023-04-06T04:13:50;49050.75;;;-149.77;51.21
60055;BME280;45930;53.514;55.904;2023-04-06T04:14:50;49050.75;;;-149.77;50.86
60055;BME280;45930;53.514;55.904;2023-04-06T04:15:51;49042.84;;;-149.77;50.52
60055;BME280;45930;53.514;55.904;2023-04-06T04:16:53;49023.03;;;-149.77;50.16
60055;BME280;45930;53.514;55.904;2023-04-06T04:17:54;49040.84;;;-149.77;49.68
60055;BME280;45930;53.514;55.904;2023-04-06T04:18:55;49036.91;;;-149.77;49.52
60055;BME280;45930;53.514;55.904;2023-04-06T04:19:55;49028.97;;;-149.77;49.57
60055;BME280;45930;53.514;55.904;2023-04-06T04:20:56;49036.91;;;-149.77;49.90
60055;BME280;45930;53.514;55.904;2023-04-06T04:21:57;49009.16;;;-149.77;49.65
60055;BME280;45930;53.514;55.904;2023-04-06T04:22:58;49021.06;;;-149.77;48.89
60055;BME280;45930;53.514;55.904;2023-04-06T04:23:59;49048.78;;;-149.77;48.22
60055;BME280;45930;53.514;55.904;2023-04-06T04:25:00;49019.06;;;-149.77;48.24
60055;BME280;45930;53.514;55.904;2023-04-06T04:26:00;49062.66;;;-149.77;48.24
60055;BME280;45930;53.514;55.904;2023-04-06T04:27:01;49025.00;;;-149.77;47.39
60055;BME280;45930;53.514;55.904;2023-04-06T04:28:02;49032.94;;;-149.77;47.47
60055;BME280;45930;53.514;55.904;2023-04-06T04:29:03;49052.75;;;-149.77;47.50
60055;BME280;45930;53.514;55.904;2023-04-06T04:30:05;49066.59;;;-149.77;47.22
60055;BME280;45930;53.514;55.904;2023-04-06T04:31:06;49034.91;;;-149.77;47.34
60055;BME280;45930;53.514;55.904;2023-04-06T04:32:07;49034.91;;;-149.77;47.34
60055;BME280;45930;53.514;55.904;2023-04-06T04:33:08;49074.53;;;-149.77;47.36
60055;BME280;45930;53.514;55.904;2023-04-06T04:34:09;49044.81;;;-149.77;47.74
60055;BME280;45930;53.514;55.904;2023-04-06T04:35:10;49068.59;;;-149.77;47.77
60055;BME280;45930;53.514;55.904;2023-04-06T04:36:11;49015.09;;;-149.77;47.59
60055;BME280;45930;53.514;55.904;2023-04-06T04:37:12;49046.78;;;-149.77;47.61
60055;BME280;45930;53.514;55.904;2023-04-06T04:38:13;49056.69;;;-149.77;47.29
60055;BME280;45930;53.514;55.904;2023-04-06T04:39:14;49058.69;;;-149.77;47.59
60055;BME280;45930;53.514;55.904;2023-04-06T04:40:15;49048.78;;;-149.77;47.56
60055;BME280;45930;53.514;55.904;2023-04-06T04:41:17;49028.97;;;-149.77;47.88
60055;BME280;45930;53.514;55.904;2023-04-06T04:42:18;49044.81;;;-149.77;47.86
60055;BME280;45930;53.514;55.904;2023-04-06T04:43:19;49060.66;;;-149.77;47.79
60055;BME280;45930;53.514;55.904;2023-04-06T04:44:20;49048.78;;;-149.77;47.79
60055;BME280;45930;53.514;55.904;2023-04-06T04:45:21;49058.69;;;-149.77;47.53
60055;BME280;45930;53.514;55.904;2023-04-06T04:46:21;49025.00;;;-149.77;47.40
60055;BME280;45930;53.514;55.904;2023-04-06T04:47:22;49028.97;;;-149.77;47.07
60055;BME280;45930;53.514;55.904;2023-04-06T04:48:23;49028.97;;;-149.77;47.22
60055;BME280;45930;53.514;55.904;2023-04-06T04:49:23;49019.06;;;-149.77;47.26
60055;BME280;45930;53.514;55.904;2023-04-06T04:50:24;49021.06;;;-149.77;47.22
60055;BME280;45930;53.514;55.904;2023-04-06T04:51:25;49034.91;;;-149.77;46.89
60055;BME280;45930;53.514;55.904;2023-04-06T04:52:26;49032.94;;;-149.77;46.37
60055;BME280;45930;53.514;55.904;2023-04-06T04:53:27;49052.75;;;-149.77;46.48
60055;BME280;45930;53.514;55.904;2023-04-06T04:54:27;49036.91;;;-149.77;46.30
60055;BME280;45930;53.514;55.904;2023-04-06T04:55:28;49046.78;;;-149.77;46.24
60055;BME280;45930;53.514;55.904;2023-04-06T04:56:29;49040.84;;;-149.77;46.27
60055;BME280;45930;53.514;55.904;2023-04-06T04:57:30;49025.00;;;-149.77;46.17
60055;BME280;45930;53.514;55.904;2023-04-06T04:58:31;49046.78;;;-149.77;45.91
60055;BME280;45930;53.514;55.904;2023-04-06T04:59:34;49044.81;;;-149.77;45.81
60055;BME280;45930;53.514;55.904;2023-04-06T05:00:35;49028.97;;;-149.77;45.57
60055;BME280;45930;53.514;55.904;2023-04-06T05:01:35;49009.16;;;-149.77;45.58
60055;BME280;45930;53.514;55.904;2023-04-06T05:02:36;49042.84;;;-149.77;45.28
60055;BME280;45930;53.514;55.904;2023-04-06T05:03:37;49042.84;;;-149.77;44.88
60055;BME280;45930;53.514;55.904;2023-04-06T05:04:39;49027.00;;;-149.77;44.44
60055;BME280;45930;53.514;55.904;2023-04-06T05:05:40;49028.97;;;-149.77;44.41
60055;BME280;45930;53.514;55.904;2023-04-06T05:06:40;49034.91;;;-149.77;44.54
60055;BME280;45930;53.514;55.904;2023-04-06T05:07:41;49032.94;;;-149.77;44.56
60055;BME280;45930;53.514;55.904;2023-04-06T05:08:42;48997.28;;;-149.77;44.13
60055;BME280;45930;53.514;55.904;2023-04-06T05:09:42;49019.06;;;-149.77;43.80
60055;BME280;45930;53.514;55.904;2023-04-06T05:10:43;49030.94;;;-149.77;43.27